createdAt,value
2022-08-17T00:00:43.901Z,19.56
2022-08-17T00:03:15.059Z,19.58
2022-08-17T00:05:48.740Z,19.58
2022-08-17T00:08:20.692Z,19.57
2022-08-17T00:10:49.683Z,19.58
2022-08-17T00:13:29.505Z,19.56
2022-08-17T00:16:01.187Z,19.60
2022-08-17T00:19:01.173Z,19.55
2022-08-17T00:21:25.350Z,19.49
2022-08-17T00:23:53.414Z,19.48
2022-08-17T00:26:44.025Z,19.49
2022-08-17T00:29:09.950Z,19.47
2022-08-17T00:31:49.765Z,19.40
2022-08-17T00:34:17.591Z,19.35
2022-08-17T00:36:45.263Z,19.34
2022-08-17T00:39:15.263Z,19.31
2022-08-17T00:41:43.314Z,19.27
2022-08-17T00:44:12.155Z,19.25
2022-08-17T00:46:43.345Z,19.16
2022-08-17T00:49:15.697Z,19.15
2022-08-17T00:51:49.074Z,19.17
2022-08-17T00:54:22.424Z,19.15
2022-08-17T00:56:54.651Z,19.10
2022-08-17T00:59:26.770Z,19.13
2022-08-17T01:01:54.564Z,19.04
2022-08-17T01:04:23.447Z,19.02
2022-08-17T01:06:52.294Z,19.03
2022-08-17T01:09:24.835Z,19.02
2022-08-17T01:11:52.966Z,19.07
2022-08-17T01:14:25.568Z,18.99
2022-08-17T01:16:56.340Z,18.99
2022-08-17T01:19:28.708Z,18.99
2022-08-17T01:22:07.397Z,18.94
2022-08-17T01:24:40.503Z,18.94
2022-08-17T01:27:10.660Z,18.98
2022-08-17T01:29:42.114Z,18.92
2022-08-17T01:32:10.339Z,18.87
2022-08-17T01:34:43.492Z,18.88
2022-08-17T01:37:13.982Z,18.83
2022-08-17T01:39:57.692Z,18.85
2022-08-17T01:42:42.720Z,18.88
2022-08-17T01:45:16.721Z,18.97
2022-08-17T01:47:44.959Z,19.14
2022-08-17T01:50:21.805Z,19.19
2022-08-17T01:52:54.312Z,19.28
2022-08-17T01:55:30.574Z,19.37
2022-08-17T01:57:58.271Z,19.44
2022-08-17T02:00:27.860Z,19.48
2022-08-17T02:03:17.186Z,19.52
2022-08-17T02:05:47.306Z,19.51
2022-08-17T02:08:19.762Z,19.49
2022-08-17T02:10:49.390Z,19.45
2022-08-17T02:13:17.993Z,19.45
2022-08-17T02:15:46.213Z,19.47
2022-08-17T02:18:15.800Z,19.33
2022-08-17T02:20:43.809Z,19.22
2022-08-17T02:23:16.297Z,19.13
2022-08-17T02:25:51.825Z,19.07
2022-08-17T02:28:19.698Z,19.00
2022-08-17T02:30:59.470Z,18.95
2022-08-17T02:33:41.637Z,18.86
2022-08-17T02:36:12.490Z,18.74
2022-08-17T02:38:42.809Z,18.76
2022-08-17T02:41:11.500Z,18.76
2022-08-17T02:43:39.085Z,18.74
2022-08-17T02:46:06.741Z,18.68
2022-08-17T02:48:34.286Z,18.64
2022-08-17T02:51:01.940Z,18.63
2022-08-17T02:53:35.585Z,18.62
2022-08-17T02:56:04.256Z,18.64
2022-08-17T02:58:35.684Z,18.58
2022-08-17T03:01:06.953Z,18.53
2022-08-17T03:03:37.961Z,18.46
2022-08-17T03:06:07.598Z,18.42
2022-08-17T03:08:38.587Z,18.44
2022-08-17T03:11:06.370Z,18.47
2022-08-17T03:13:34.094Z,18.49
2022-08-17T03:16:01.746Z,18.47
2022-08-17T03:18:29.377Z,18.43
2022-08-17T03:21:01.750Z,18.43
2022-08-17T03:23:30.404Z,18.39
2022-08-17T03:25:59.378Z,18.36
2022-08-17T03:28:29.624Z,18.39
2022-08-17T03:31:00.533Z,18.37
2022-08-17T03:33:28.101Z,18.34
2022-08-17T03:35:55.934Z,18.30
2022-08-17T03:38:23.699Z,18.28
2022-08-17T03:40:59.520Z,18.28
2022-08-17T03:43:30.513Z,18.29
2022-08-17T03:46:28.216Z,18.26
2022-08-17T03:49:20.593Z,18.28
2022-08-17T03:52:06.000Z,18.26
2022-08-17T03:54:51.030Z,18.22
2022-08-17T03:57:19.250Z,18.27
2022-08-17T03:59:47.702Z,18.24
2022-08-17T04:02:21.951Z,18.25
2022-08-17T04:04:51.281Z,18.25
2022-08-17T04:07:21.729Z,18.29
2022-08-17T04:09:51.947Z,18.31
2022-08-17T04:12:22.745Z,18.38
2022-08-17T04:14:53.000Z,18.36
2022-08-17T04:17:28.354Z,18.38
2022-08-17T04:19:56.564Z,18.42
2022-08-17T04:22:32.817Z,18.47
2022-08-17T04:25:16.602Z,18.55
2022-08-17T04:27:48.299Z,18.59
2022-08-17T04:30:19.867Z,18.63
2022-08-17T04:33:18.705Z,18.73
2022-08-17T04:35:52.093Z,18.81
2022-08-17T04:38:22.895Z,18.89
2022-08-17T04:41:08.521Z,19.04
2022-08-17T04:43:37.762Z,19.20
2022-08-17T04:46:08.343Z,19.30
2022-08-17T04:48:41.359Z,19.41
2022-08-17T04:51:13.973Z,19.58
2022-08-17T04:53:46.554Z,19.96
2022-08-17T04:56:22.071Z,20.57
2022-08-17T04:58:51.758Z,21.15
2022-08-17T05:01:23.419Z,21.78
2022-08-17T05:03:53.048Z,22.46
2022-08-17T05:06:20.812Z,23.14
2022-08-17T05:08:50.717Z,23.29
2022-08-17T05:11:18.846Z,23.37
2022-08-17T05:13:47.422Z,23.83
2022-08-17T05:16:14.995Z,24.11
2022-08-17T05:18:42.899Z,24.15
2022-08-17T05:21:10.552Z,23.90
2022-08-17T05:23:42.406Z,23.61
2022-08-17T05:26:25.670Z,23.29
2022-08-17T05:28:55.002Z,23.22
2022-08-17T05:31:25.127Z,23.54
2022-08-17T05:33:53.321Z,24.44
2022-08-17T05:36:41.764Z,25.77
2022-08-17T05:39:08.838Z,26.35
2022-08-17T05:41:43.526Z,27.19
2022-08-17T05:44:13.882Z,27.68
2022-08-17T05:46:45.086Z,27.74
2022-08-17T05:49:15.635Z,27.64
2022-08-17T05:51:58.456Z,28.12
2022-08-17T05:54:36.798Z,28.60
2022-08-17T05:57:29.147Z,29.13
2022-08-17T06:00:01.916Z,29.91
2022-08-17T06:02:42.033Z,30.61
2022-08-17T06:05:22.747Z,30.27
2022-08-17T06:08:27.384Z,29.33
2022-08-17T06:11:15.660Z,28.59
2022-08-17T06:13:53.540Z,28.08
2022-08-17T06:16:34.158Z,27.49
2022-08-17T06:19:46.738Z,27.58
2022-08-17T06:22:17.819Z,27.49
2022-08-17T06:25:10.313Z,27.62
2022-08-17T06:27:57.638Z,27.68
2022-08-17T06:30:57.410Z,27.83
2022-08-17T06:33:32.349Z,27.88
2022-08-17T06:36:28.123Z,27.95
2022-08-17T06:39:13.676Z,28.21
2022-08-17T06:42:07.434Z,28.30
2022-08-17T06:44:51.140Z,28.20
2022-08-17T06:47:31.372Z,28.31
2022-08-17T06:50:43.910Z,28.37
2022-08-17T06:53:29.476Z,28.40
2022-08-17T06:56:13.938Z,28.55
2022-08-17T06:58:44.196Z,28.59
2022-08-17T07:01:17.935Z,28.77
2022-08-17T07:03:58.632Z,28.74
2022-08-17T07:07:24.320Z,28.87
2022-08-17T07:09:53.966Z,29.34
2022-08-17T07:12:30.347Z,29.02
2022-08-17T07:15:10.163Z,29.11
2022-08-17T07:17:47.869Z,29.51
2022-08-17T07:20:22.725Z,29.58
2022-08-17T07:22:59.830Z,29.60
2022-08-17T07:25:30.710Z,29.38
2022-08-17T07:28:03.875Z,29.78
2022-08-17T07:30:45.543Z,29.60
2022-08-17T07:33:20.222Z,29.66
2022-08-17T07:35:50.010Z,30.13
2022-08-17T07:38:32.983Z,30.44
2022-08-17T07:41:10.671Z,30.91
2022-08-17T07:43:40.987Z,30.68
2022-08-17T07:46:48.040Z,31.35
2022-08-17T07:49:15.541Z,31.69
2022-08-17T07:51:46.688Z,32.11
2022-08-17T07:54:20.323Z,32.50
2022-08-17T07:56:53.617Z,32.96
2022-08-17T07:59:27.191Z,33.66
2022-08-17T08:02:05.390Z,34.19
2022-08-17T08:07:49.568Z,35.01
2022-08-17T08:10:27.593Z,35.06
2022-08-17T08:13:08.826Z,34.99
2022-08-17T08:15:53.826Z,35.51
2022-08-17T08:18:53.537Z,35.70
2022-08-17T08:21:56.444Z,35.34
2022-08-17T08:24:33.015Z,35.89
2022-08-17T08:27:07.888Z,36.60
2022-08-17T08:29:50.349Z,37.38
2022-08-17T08:32:46.504Z,37.90
2022-08-17T08:35:39.002Z,36.35
2022-08-17T08:38:16.587Z,37.53
2022-08-17T08:41:01.756Z,36.15
2022-08-17T08:43:41.263Z,36.22
2022-08-17T08:46:34.675Z,37.84
2022-08-17T08:49:59.155Z,38.73
2022-08-17T08:52:32.496Z,39.20
2022-08-17T08:55:13.283Z,39.47
2022-08-17T08:58:31.789Z,39.13
2022-08-17T09:01:00.307Z,39.99
2022-08-17T09:03:52.784Z,39.72
2022-08-17T09:06:39.011Z,39.33
2022-08-17T09:09:38.406Z,40.09
2022-08-17T09:12:58.442Z,38.48
2022-08-17T09:15:29.872Z,37.72
2022-08-17T09:19:03.565Z,38.08
2022-08-17T09:21:02.531Z,37.80
2022-08-17T09:23:35.502Z,38.07
2022-08-17T09:26:12.081Z,39.14
2022-08-17T09:28:42.833Z,39.37
2022-08-17T09:31:21.871Z,38.04
2022-08-17T09:33:51.271Z,37.87
2022-08-17T09:36:35.318Z,37.18
2022-08-17T09:39:09.286Z,38.16
2022-08-17T09:42:05.854Z,37.92
2022-08-17T09:44:45.271Z,38.69
2022-08-17T09:47:28.407Z,39.53
2022-08-17T09:50:02.315Z,37.69
2022-08-17T09:52:31.686Z,37.11
2022-08-17T09:55:00.995Z,37.65
2022-08-17T09:57:43.739Z,38.49
2022-08-17T10:00:26.139Z,39.72
2022-08-17T10:03:16.315Z,40.40
2022-08-17T10:06:08.351Z,40.00
2022-08-17T10:08:46.798Z,40.09
2022-08-17T10:11:50.707Z,40.93
2022-08-17T10:14:37.847Z,40.02
2022-08-17T10:18:03.994Z,39.70
2022-08-17T10:20:38.798Z,40.61
2022-08-17T10:23:56.196Z,41.20
2022-08-17T10:26:27.147Z,41.97
2022-08-17T10:29:11.243Z,42.36
2022-08-17T10:31:53.386Z,41.91
2022-08-17T10:34:41.455Z,42.63
2022-08-17T10:37:40.600Z,41.46
2022-08-17T10:40:27.863Z,43.08
2022-08-17T10:43:04.327Z,41.64
2022-08-17T10:45:47.559Z,42.09
2022-08-17T10:48:16.642Z,42.08
2022-08-17T10:50:59.772Z,42.21
2022-08-17T10:53:33.562Z,42.51
2022-08-17T10:56:13.112Z,42.16
2022-08-17T10:58:57.563Z,42.50
2022-08-17T11:01:34.119Z,42.83
2022-08-17T11:04:11.204Z,41.89
2022-08-17T11:06:38.795Z,41.66
2022-08-17T11:09:10.486Z,41.17
2022-08-17T11:11:47.368Z,41.71
2022-08-17T11:14:51.701Z,40.22
2022-08-17T11:17:31.319Z,41.20
2022-08-17T11:20:17.416Z,40.74
2022-08-17T11:23:09.035Z,41.44
2022-08-17T11:25:50.327Z,42.06
2022-08-17T11:28:23.131Z,42.24
2022-08-17T11:30:54.918Z,42.29
2022-08-17T11:33:31.746Z,41.81
2022-08-17T11:36:31.598Z,39.90
2022-08-17T11:39:24.386Z,38.28
2022-08-17T11:42:11.876Z,37.49
2022-08-17T11:44:54.779Z,38.03
2022-08-17T11:48:26.620Z,36.86
2022-08-17T11:51:19.266Z,36.60
2022-08-17T11:53:46.951Z,35.80
2022-08-17T11:56:52.897Z,35.24
2022-08-17T11:59:32.682Z,34.82
2022-08-17T12:02:31.420Z,35.40
2022-08-17T12:05:28.028Z,35.24
2022-08-17T12:08:08.026Z,36.23
2022-08-17T12:10:49.903Z,35.88
2022-08-17T12:13:19.182Z,35.50
2022-08-17T12:15:54.162Z,35.47
2022-08-17T12:18:35.639Z,35.55
2022-08-17T12:21:13.404Z,36.69
2022-08-17T12:23:57.148Z,37.73
2022-08-17T12:26:33.316Z,38.69
2022-08-17T12:29:06.467Z,39.20
2022-08-17T12:31:46.683Z,39.84
2022-08-17T12:34:27.822Z,38.95
2022-08-17T12:37:02.298Z,37.78
2022-08-17T12:39:33.963Z,36.84
2022-08-17T12:42:04.636Z,36.27
2022-08-17T12:44:50.214Z,36.28
2022-08-17T12:47:24.729Z,37.52
2022-08-17T12:50:29.159Z,36.56
2022-08-17T12:53:01.164Z,35.86
2022-08-17T12:55:32.496Z,35.45
2022-08-17T12:58:02.975Z,35.45
2022-08-17T13:00:40.286Z,36.11
2022-08-17T13:03:36.692Z,36.54
2022-08-17T13:06:09.538Z,36.78
2022-08-17T13:08:42.860Z,37.19
2022-08-17T13:11:24.529Z,37.22
2022-08-17T13:13:56.023Z,36.60
2022-08-17T13:16:28.490Z,36.28
2022-08-17T13:19:16.164Z,36.09
2022-08-17T13:21:52.611Z,35.92
2022-08-17T13:24:28.311Z,35.73
2022-08-17T13:27:10.788Z,35.84
2022-08-17T13:29:53.481Z,36.04
2022-08-17T13:32:33.558Z,35.93
2022-08-17T13:35:15.599Z,35.51
2022-08-17T13:38:35.953Z,35.49
2022-08-17T13:41:05.658Z,35.74
2022-08-17T13:43:59.622Z,35.54
2022-08-17T13:46:32.221Z,35.47
2022-08-17T13:49:06.060Z,35.28
2022-08-17T13:51:43.681Z,35.48
2022-08-17T13:54:28.860Z,35.26
2022-08-17T13:57:08.384Z,34.87
2022-08-17T13:59:52.933Z,34.55
2022-08-17T14:02:28.365Z,34.48
2022-08-17T14:04:57.157Z,34.53
2022-08-17T14:07:40.391Z,34.55
2022-08-17T14:10:18.276Z,34.65
2022-08-17T14:12:47.988Z,34.71
2022-08-17T14:15:18.236Z,34.71
2022-08-17T14:17:48.494Z,34.61
2022-08-17T14:20:18.152Z,34.66
2022-08-17T14:22:51.300Z,34.64
2022-08-17T14:25:23.058Z,34.61
2022-08-17T14:27:53.553Z,34.50
2022-08-17T14:30:28.961Z,34.44
2022-08-17T14:32:58.101Z,34.48
2022-08-17T14:35:27.950Z,34.47
2022-08-17T14:37:58.734Z,34.40
2022-08-17T14:40:27.201Z,34.41
2022-08-17T14:42:57.664Z,34.41
2022-08-17T14:45:31.510Z,34.39
2022-08-17T14:48:05.649Z,34.35
2022-08-17T14:50:40.609Z,34.21
2022-08-17T14:53:11.476Z,34.18
2022-08-17T14:55:40.712Z,34.15
2022-08-17T14:58:09.536Z,34.13
2022-08-17T15:00:38.214Z,34.00
2022-08-17T15:03:06.517Z,33.88
2022-08-17T15:05:36.657Z,33.83
2022-08-17T15:08:05.642Z,33.77
2022-08-17T15:10:34.431Z,33.70
2022-08-17T15:13:02.686Z,33.60
2022-08-17T15:15:30.900Z,33.54
2022-08-17T15:18:02.486Z,33.48
2022-08-17T15:20:33.316Z,33.42
2022-08-17T15:23:00.927Z,33.37
2022-08-17T15:25:32.152Z,33.30
2022-08-17T15:28:03.043Z,33.28
2022-08-17T15:30:31.314Z,33.22
2022-08-17T15:33:00.721Z,33.21
2022-08-17T15:35:31.949Z,33.21
2022-08-17T15:38:11.187Z,33.14
2022-08-17T15:40:43.504Z,33.09
2022-08-17T15:43:17.470Z,33.02
2022-08-17T15:45:58.742Z,32.96
2022-08-17T15:48:40.807Z,32.88
2022-08-17T15:51:19.623Z,32.84
2022-08-17T15:53:50.456Z,32.79
2022-08-17T15:56:18.757Z,32.70
2022-08-17T15:58:48.650Z,32.66
2022-08-17T16:02:27.775Z,32.60
2022-08-17T16:04:30.137Z,32.63
2022-08-17T16:06:55.056Z,32.61
2022-08-17T16:09:23.669Z,32.54
2022-08-17T16:11:55.176Z,32.43
2022-08-17T16:14:24.696Z,32.35
2022-08-17T16:17:00.419Z,32.26
2022-08-17T16:19:28.068Z,32.14
2022-08-17T16:21:55.909Z,32.09
2022-08-17T16:24:23.460Z,31.98
2022-08-17T16:26:51.160Z,31.88
2022-08-17T16:29:18.845Z,31.81
2022-08-17T16:31:46.639Z,31.75
2022-08-17T16:34:17.745Z,31.67
2022-08-17T16:36:55.221Z,31.59
2022-08-17T16:39:28.968Z,31.57
2022-08-17T16:41:57.063Z,31.46
2022-08-17T16:44:25.808Z,31.35
2022-08-17T16:46:53.478Z,31.24
2022-08-17T16:49:35.937Z,31.12
2022-08-17T16:52:07.263Z,31.01
2022-08-17T16:54:35.530Z,30.84
2022-08-17T16:57:05.091Z,30.69
2022-08-17T16:59:41.840Z,30.58
2022-08-17T17:02:29.674Z,30.45
2022-08-17T17:05:03.849Z,30.31
2022-08-17T17:07:42.489Z,30.15
2022-08-17T17:10:15.335Z,29.97
2022-08-17T17:13:02.781Z,29.81
2022-08-17T17:15:43.998Z,29.63
2022-08-17T17:18:15.236Z,29.45
2022-08-17T17:20:53.554Z,29.29
2022-08-17T17:23:35.070Z,29.13
2022-08-17T17:26:21.577Z,28.96
2022-08-17T17:29:04.961Z,28.76
2022-08-17T17:31:52.440Z,28.60
2022-08-17T17:34:21.013Z,28.44
2022-08-17T17:36:57.622Z,28.28
2022-08-17T17:39:48.944Z,28.13
2022-08-17T17:42:23.308Z,27.98
2022-08-17T17:45:07.206Z,27.87
2022-08-17T17:47:35.542Z,27.77
2022-08-17T17:50:05.272Z,27.63
2022-08-17T17:52:47.598Z,27.51
2022-08-17T17:55:43.810Z,27.41
2022-08-17T17:58:18.265Z,27.26
2022-08-17T18:01:04.393Z,27.16
2022-08-17T18:04:03.033Z,27.05
2022-08-17T18:07:09.917Z,26.88
2022-08-17T18:10:01.482Z,26.80
2022-08-17T18:12:38.707Z,26.67
2022-08-17T18:15:19.517Z,26.60
2022-08-17T18:18:09.061Z,26.52
2022-08-17T18:20:53.997Z,26.43
2022-08-17T18:23:28.199Z,26.38
2022-08-17T18:25:59.479Z,26.32
2022-08-17T18:28:39.790Z,26.25
2022-08-17T18:31:13.645Z,26.18
2022-08-17T18:33:43.708Z,26.12
2022-08-17T18:36:11.820Z,26.07
2022-08-17T18:38:46.773Z,26.05
2022-08-17T18:41:19.329Z,26.00
2022-08-17T18:44:03.333Z,25.97
2022-08-17T18:46:37.704Z,25.91
2022-08-17T18:49:25.987Z,25.86
2022-08-17T18:52:16.617Z,25.79
2022-08-17T18:55:18.550Z,25.67
2022-08-17T18:57:52.492Z,25.60
2022-08-17T19:00:40.611Z,25.53
2022-08-17T19:03:30.722Z,25.48
2022-08-17T19:06:25.459Z,25.48
2022-08-17T19:08:53.358Z,25.36
2022-08-17T19:11:35.119Z,25.26
2022-08-17T19:14:29.751Z,25.17
2022-08-17T19:17:10.924Z,25.06
2022-08-17T19:19:56.547Z,24.92
2022-08-17T19:22:39.503Z,24.83
2022-08-17T19:25:17.045Z,24.74
2022-08-17T19:27:57.641Z,24.64
2022-08-17T19:30:25.968Z,24.53
2022-08-17T19:32:54.906Z,24.46
2022-08-17T19:35:28.031Z,24.42
2022-08-17T19:37:56.454Z,24.33
2022-08-17T19:40:51.140Z,24.31
2022-08-17T19:43:59.274Z,24.22
2022-08-17T19:46:50.660Z,24.18
2022-08-17T19:49:41.199Z,24.13
2022-08-17T19:52:27.961Z,24.12
2022-08-17T19:55:06.848Z,24.06
2022-08-17T19:57:40.484Z,24.10
2022-08-17T20:00:16.118Z,24.10
2022-08-17T20:03:16.735Z,24.14
2022-08-17T20:06:11.532Z,24.23
2022-08-17T20:09:00.472Z,24.29
2022-08-17T20:11:46.300Z,24.31
2022-08-17T20:14:19.939Z,24.24
2022-08-17T20:16:48.047Z,24.17
2022-08-17T20:19:36.318Z,24.11
2022-08-17T20:22:19.180Z,23.99
2022-08-17T20:24:59.670Z,23.92
2022-08-17T20:27:35.726Z,23.76
2022-08-17T20:30:33.028Z,23.63
2022-08-17T20:33:03.267Z,23.59
2022-08-17T20:35:32.661Z,23.59
2022-08-17T20:38:02.863Z,23.58
2022-08-17T20:40:55.237Z,23.55
2022-08-17T20:43:37.002Z,23.48
2022-08-17T20:46:13.581Z,23.39
2022-08-17T20:48:46.216Z,23.36
2022-08-17T20:51:28.272Z,23.29
2022-08-17T20:53:55.918Z,23.24
2022-08-17T20:56:45.261Z,23.22
2022-08-17T20:59:22.127Z,23.19
2022-08-17T21:02:18.091Z,23.16
2022-08-17T21:05:26.191Z,23.12
2022-08-17T21:08:00.570Z,23.03
2022-08-17T21:10:28.058Z,22.98
2022-08-17T21:13:15.588Z,22.92
2022-08-17T21:15:43.331Z,22.86
2022-08-17T21:18:30.061Z,22.79
2022-08-17T21:21:17.710Z,22.72
2022-08-17T21:23:57.484Z,22.73
2022-08-17T21:26:50.583Z,22.66
2022-08-17T21:29:29.935Z,22.62
2022-08-17T21:32:00.501Z,22.56
2022-08-17T21:34:36.802Z,22.51
2022-08-17T21:37:29.748Z,22.50
2022-08-17T21:40:19.883Z,22.48
2022-08-17T21:42:58.095Z,22.47
2022-08-17T21:45:31.187Z,22.49
2022-08-17T21:48:13.929Z,22.46
2022-08-17T21:50:45.172Z,22.44
2022-08-17T21:53:18.110Z,22.42
2022-08-17T21:55:50.218Z,22.36
2022-08-17T21:58:30.413Z,22.35
2022-08-17T22:01:26.094Z,22.30
2022-08-17T22:04:21.914Z,22.22
2022-08-17T22:06:56.643Z,22.20
2022-08-17T22:09:25.674Z,22.14
2022-08-17T22:11:57.617Z,22.04
2022-08-17T22:14:51.447Z,22.04
2022-08-17T22:17:27.921Z,22.00
2022-08-17T22:20:08.949Z,21.98
2022-08-17T22:23:00.818Z,21.92
2022-08-17T22:25:29.578Z,21.90
2022-08-17T22:28:03.111Z,21.87
2022-08-17T22:30:36.328Z,21.82
2022-08-17T22:33:38.010Z,21.77
2022-08-17T22:36:25.818Z,21.81
2022-08-17T22:38:59.571Z,21.75
2022-08-17T22:41:34.390Z,21.69
2022-08-17T22:44:23.119Z,21.65
2022-08-17T22:47:03.718Z,21.62
2022-08-17T22:49:59.101Z,21.55
2022-08-17T22:52:57.539Z,21.50
2022-08-17T22:55:44.242Z,21.42
2022-08-17T22:58:40.471Z,21.39
2022-08-17T23:01:26.541Z,21.38
2022-08-17T23:03:59.295Z,21.29
2022-08-17T23:06:26.862Z,21.39
2022-08-17T23:08:57.655Z,21.62
2022-08-17T23:11:36.821Z,21.67
2022-08-17T23:14:15.911Z,21.73
2022-08-17T23:16:43.919Z,21.72
2022-08-17T23:19:15.359Z,21.72
2022-08-17T23:21:44.763Z,21.67
2022-08-17T23:24:22.766Z,21.58
2022-08-17T23:26:50.544Z,21.60
2022-08-17T23:29:20.564Z,21.59
2022-08-17T23:31:50.473Z,21.62
2022-08-17T23:34:19.400Z,21.72
2022-08-17T23:36:51.247Z,21.79
2022-08-17T23:39:27.535Z,21.83
2022-08-17T23:41:58.700Z,21.86
2022-08-17T23:44:31.533Z,21.96
2022-08-17T23:46:59.083Z,22.06
2022-08-17T23:49:27.183Z,22.17
2022-08-17T23:51:55.212Z,22.22
2022-08-17T23:54:29.102Z,22.21
2022-08-17T23:57:01.664Z,22.19
2022-08-17T23:59:29.905Z,22.17
